Time;durP1;ratioP1;P1;durP2;ratioP2;P2;SDS_P1;SDS_P2;PMS_P1;PMS_P2;Temp;Humidity;BMP_temperature;BMP_pressure;BME280_temperature;BME280_humidity;BME280_pressure;Samples;Min_cycle;Max_cycle;Signal;HPM_P1;HPM_P2
2022/12/02 00:01:16;;;;;;;26.70;23.88;;;;;;;9.51;63.08;102481.84;4976757;28;20033;-70
2022/12/02 00:03:41;;;;;;;30.58;24.85;;;;;;;9.51;63.11;102479.16;4975438;28;20421;-68
2022/12/02 00:06:14;;;;;;;29.73;25.92;;;;;;;9.51;63.05;102479.16;4976572;28;20046;-69
2022/12/02 00:08:40;;;;;;;27.75;23.48;;;;;;;9.52;63.00;102479.97;4975346;28;20019;-69
2022/12/02 00:11:24;;;;;;;28.95;25.85;;;;;;;9.52;62.99;102482.66;4976231;28;20477;-69
2022/12/02 00:13:50;;;;;;;40.90;30.23;;;;;;;9.52;63.08;102482.66;4975981;28;20078;-72
2022/12/02 00:16:25;;;;;;;33.95;25.77;;;;;;;9.51;63.08;102479.16;4976524;28;20031;-68
2022/12/02 00:18:51;;;;;;;42.38;25.45;;;;;;;9.52;63.01;102474.56;4977445;28;20523;-68
2022/12/02 00:21:18;;;;;;;27.65;23.45;;;;;;;9.52;63.05;102480.84;4976325;28;20042;-68
2022/12/02 00:23:43;;;;;;;30.92;24.60;;;;;;;9.51;63.03;102471.06;4975327;28;20045;-68
2022/12/02 00:26:08;;;;;;;30.90;24.95;;;;;;;9.51;63.05;102465.66;4976746;28;20378;-68
2022/12/02 00:28:34;;;;;;;30.13;23.45;;;;;;;9.51;63.29;102468.34;4975973;28;20069;-69
2022/12/02 00:31:00;;;;;;;28.98;24.95;;;;;;;9.50;63.10;102464.00;4976591;28;20085;-68
2022/12/02 00:33:25;;;;;;;33.15;24.15;;;;;;;9.50;62.92;102461.31;4975788;28;20137;-71
2022/12/02 00:35:51;;;;;;;28.73;25.63;;;;;;;9.50;63.01;102461.31;4976061;28;20525;-68
2022/12/02 00:38:16;;;;;;;27.33;24.33;;;;;;;9.50;63.02;102455.91;4976454;28;20039;-68
2022/12/02 00:40:42;;;;;;;37.55;25.95;;;;;;;9.49;63.07;102448.81;4991512;28;20043;-68
2022/12/02 00:46:52;;;;;;;35.90;25.42;;;;;;;9.49;63.03;102454.22;4974454;28;20395;-68
2022/12/02 00:48:46;;;;;;;32.17;25.15;;;;;;;9.48;63.02;102449.88;4975220;28;20483;-68
2022/12/02 00:51:11;;;;;;;33.42;25.88;;;;;;;9.48;63.01;102454.44;4975689;28;20093;-68
2022/12/02 00:53:37;;;;;;;32.25;25.42;;;;;;;9.48;63.02;102457.97;4975576;28;20058;-69
2022/12/02 00:56:02;;;;;;;34.55;26.65;;;;;;;9.48;63.05;102447.16;4974399;28;20027;-67
2022/12/02 00:58:27;;;;;;;31.42;25.25;;;;;;;9.48;62.97;102449.03;4975943;28;20447;-68
2022/12/02 01:00:53;;;;;;;31.45;26.45;;;;;;;9.48;63.08;102447.16;4975416;28;20042;-68
2022/12/02 01:03:18;;;;;;;29.85;23.80;;;;;;;9.48;62.93;102446.34;4975533;28;20535;-68
2022/12/02 01:05:43;;;;;;;36.17;24.33;;;;;;;9.48;62.79;102435.56;4975560;28;20035;-68
2022/12/02 01:08:09;;;;;;;40.13;27.13;;;;;;;9.48;63.09;102443.66;4990378;28;20045;-68
2022/12/02 01:10:34;;;;;;;38.15;25.83;;;;;;;9.47;62.95;102444.66;4975214;28;20066;-69
2022/12/02 01:12:59;;;;;;;28.50;24.83;;;;;;;9.46;62.96;102443.81;4975293;28;20481;-74
2022/12/02 01:15:25;;;;;;;31.35;25.15;;;;;;;9.46;63.10;102443.81;4976186;28;20101;-68
2022/12/02 01:17:50;;;;;;;32.13;23.88;;;;;;;9.46;62.96;102443.81;4990280;28;20038;-68
2022/12/02 01:20:16;;;;;;;39.42;26.13;;;;;;;9.45;63.10;102444.88;4975284;28;20438;-68
2022/12/02 01:22:41;;;;;;;31.40;26.17;;;;;;;9.46;62.97;102449.22;4974937;28;20035;-68
2022/12/02 01:25:07;;;;;;;32.67;26.15;;;;;;;9.47;63.00;102444.66;4975182;28;20049;-67
2022/12/02 01:27:32;;;;;;;32.53;25.42;;;;;;;9.45;63.03;102436.78;4975181;28;20030;-67
2022/12/02 01:29:58;;;;;;;38.67;26.80;;;;;;;9.45;63.00;102434.06;4990910;28;20035;-68
2022/12/02 01:32:23;;;;;;;35.35;25.95;;;;;;;9.45;62.97;102436.78;4990734;28;20034;-68
2022/12/02 01:34:50;;;;;;;34.92;24.13;;;;;;;9.45;63.11;102431.38;4975522;28;20403;-69
2022/12/02 01:37:15;;;;;;;38.00;28.30;;;;;;;9.46;63.25;102440.31;4975412;28;20058;-67
2022/12/02 01:39:40;;;;;;;37.13;25.63;;;;;;;9.45;63.06;102441.31;4975007;28;20475;-68
2022/12/02 01:42:06;;;;;;;31.17;25.60;;;;;;;9.44;63.15;102439.66;4989869;28;20049;-67
2022/12/02 01:44:31;;;;;;;34.88;26.80;;;;;;;9.44;62.77;102440.47;4974950;28;20089;-68
2022/12/02 01:46:57;;;;;;;39.40;25.45;;;;;;;9.43;63.09;102441.53;4973772;28;20379;-68
2022/12/02 01:49:22;;;;;;;37.28;25.50;;;;;;;9.44;63.24;102439.66;4974820;28;20062;-67
2022/12/02 01:51:48;;;;;;;39.58;26.25;;;;;;;9.43;63.24;102440.69;4975151;28;20057;-70
2022/12/02 01:54:13;;;;;;;35.47;25.83;;;;;;;9.43;63.09;102443.38;4975070;28;20051;-68
2022/12/02 01:56:39;;;;;;;42.05;24.45;;;;;;;9.44;63.08;102436.94;4973940;28;20031;-69
2022/12/02 01:59:05;;;;;;;40.38;26.17;;;;;;;9.44;62.98;102436.94;4974707;28;20043;-74
2022/12/02 02:01:32;;;;;;;35.45;25.05;;;;;;;9.42;63.07;102431.75;4974783;28;20038;-71
2022/12/02 02:03:59;;;;;;;37.78;28.08;;;;;;;9.43;62.88;102441.53;4974457;28;20037;-69
2022/12/02 02:06:27;;;;;;;36.25;26.75;;;;;;;9.44;62.93;102436.94;4974345;28;20475;-69
2022/12/02 02:08:53;;;;;;;38.83;27.17;;;;;;;9.43;62.92;102427.22;4973723;28;20550;-69
2022/12/02 02:11:19;;;;;;;39.53;28.48;;;;;;;9.43;63.00;102432.59;4974613;28;20165;-68
2022/12/02 02:13:45;;;;;;;30.70;24.90;;;;;;;9.44;62.95;102440.47;4975053;28;20105;-68
2022/12/02 02:16:12;;;;;;;38.55;27.15;;;;;;;9.43;62.76;102438.00;4974617;28;20030;-68
2022/12/02 02:18:38;;;;;;;36.50;27.10;;;;;;;9.43;62.84;102429.91;4974828;28;20031;-69
2022/12/02 02:21:06;;;;;;;38.17;25.77;;;;;;;9.42;63.11;102431.75;4974582;28;20038;-68
2022/12/02 02:23:31;;;;;;;47.92;30.13;;;;;;;9.43;63.08;102432.59;4989177;28;20038;-68
2022/12/02 02:25:59;;;;;;;42.15;27.63;;;;;;;9.42;62.92;102431.75;4974790;28;20034;-68
2022/12/02 02:28:24;;;;;;;43.83;28.10;;;;;;;9.43;62.76;102432.59;4974369;28;20031;-68
2022/12/02 02:30:53;;;;;;;42.45;27.40;;;;;;;9.42;63.00;102428.22;4974462;28;20382;-69
2022/12/02 02:33:20;;;;;;;47.80;29.75;;;;;;;9.42;63.09;102423.66;4974371;28;20035;-68
2022/12/02 02:35:46;;;;;;;44.33;28.40;;;;;;;9.42;62.81;102423.66;4974434;28;20030;-68
2022/12/02 02:38:15;;;;;;;41.55;26.25;;;;;;;9.42;62.87;102426.34;4974016;28;20031;-68
2022/12/02 02:40:42;;;;;;;37.58;26.35;;;;;;;9.40;63.05;102420.34;4973846;28;20431;-69
2022/12/02 02:43:09;;;;;;;39.67;27.92;;;;;;;9.42;62.91;102414.72;4974398;28;20030;-74
2022/12/02 02:45:36;;;;;;;46.08;25.13;;;;;;;9.42;62.95;102417.44;4974349;28;20034;-68
2022/12/02 02:48:05;;;;;;;38.15;26.70;;;;;;;9.41;62.83;102418.47;4974117;28;20083;-68
2022/12/02 02:50:31;;;;;;;;;;;;;;;9.40;62.85;102406.84;4974922;28;20553;-68
2022/12/02 02:52:57;;;;;;;43.17;27.08;;;;;;;9.38;62.61;102408.91;4989073;28;20021;-68
2022/12/02 02:55:25;;;;;;;51.58;28.95;;;;;;;9.37;62.90;102401.81;4973083;28;20468;-68
2022/12/02 02:57:51;;;;;;;41.70;27.05;;;;;;;9.38;63.14;102402.69;4974291;28;20031;-68
2022/12/02 03:00:19;;;;;;;47.85;28.50;;;;;;;9.38;62.85;102395.41;4974420;28;20101;-68
2022/12/02 03:02:48;;;;;;;45.40;26.83;;;;;;;9.37;62.85;102396.44;4974206;28;20471;-70
2022/12/02 03:05:13;;;;;;;50.72;28.23;;;;;;;9.39;62.73;102390.84;4974200;28;20038;-69
2022/12/02 03:07:39;;;;;;;50.38;28.95;;;;;;;9.38;62.94;102392.72;4975148;28;20030;-69
2022/12/02 03:10:05;;;;;;;41.20;28.00;;;;;;;9.39;62.79;102382.75;4977681;28;20038;-67
2022/12/02 03:12:31;;;;;;;52.45;28.40;;;;;;;9.37;62.89;102384.81;4993259;28;20054;-66
2022/12/02 03:14:57;;;;;;;42.03;28.58;;;;;;;9.37;63.01;102385.63;4977788;28;20390;-66
2022/12/02 03:17:23;;;;;;;56.15;29.35;;;;;;;9.37;62.92;102382.13;4976234;28;20031;-67
2022/12/02 03:19:49;;;;;;;47.10;28.60;;;;;;;9.37;62.92;102390.22;4992505;28;20535;-66
2022/12/02 03:22:14;;;;;;;46.30;27.40;;;;;;;9.37;62.82;102388.34;4977126;28;20058;-70
2022/12/02 03:24:40;;;;;;;52.58;29.67;;;;;;;9.37;62.84;102384.81;4977704;28;20069;-66
2022/12/02 03:27:07;;;;;;;39.67;26.38;;;;;;;9.38;62.88;102383.81;4977402;28;20442;-69
2022/12/02 03:29:33;;;;;;;44.53;27.23;;;;;;;9.36;62.81;102383.97;4977475;28;20028;-70
2022/12/02 03:32:00;;;;;;;44.45;27.83;;;;;;;9.36;62.77;102378.59;4977306;28;20030;-67
2022/12/02 03:34:27;;;;;;;43.85;27.90;;;;;;;9.36;62.79;102375.06;4977600;28;20031;-66
2022/12/02 03:36:52;;;;;;;44.30;26.65;;;;;;;9.36;62.92;102378.59;4976711;28;20128;-66
2022/12/02 03:39:18;;;;;;;52.55;29.52;;;;;;;9.36;62.87;102385.84;4975870;28;20467;-67
2022/12/02 03:41:45;;;;;;;47.97;27.58;;;;;;;9.36;62.73;102381.28;4976843;28;20035;-68
2022/12/02 03:44:11;;;;;;;47.17;29.35;;;;;;;9.36;62.77;102375.06;4976181;28;20035;-67
2022/12/02 03:46:36;;;;;;;48.08;28.25;;;;;;;9.36;62.76;102375.06;4976937;28;20518;-67
2022/12/02 03:49:02;;;;;;;41.75;28.35;;;;;;;9.36;63.23;102383.16;4977007;28;20459;-67
2022/12/02 03:51:28;;;;;;;48.20;28.98;;;;;;;9.36;62.80;102383.16;4976930;28;20109;-67
2022/12/02 03:53:54;;;;;;;48.75;26.45;;;;;;;9.35;62.69;102385.03;4976932;28;20050;-68
2022/12/02 03:56:19;;;;;;;46.22;26.92;;;;;;;9.34;62.68;102377.94;4977547;28;20034;-67
2022/12/02 03:58:48;;;;;;;45.65;26.75;;;;;;;9.34;62.77;102377.94;4976773;28;20518;-67
2022/12/02 04:01:14;;;;;;;42.90;27.08;;;;;;;9.34;62.73;102366.31;4975787;28;20030;-67
2022/12/02 04:03:40;;;;;;;44.22;26.85;;;;;;;9.33;62.72;102373.59;4991294;28;20058;-73
2022/12/02 04:06:05;;;;;;;39.72;26.98;;;;;;;9.32;62.77;102372.75;4976991;28;20106;-67
2022/12/02 04:08:31;;;;;;;46.15;27.90;;;;;;;9.33;62.74;102368.19;4976596;28;20496;-67
2022/12/02 04:10:57;;;;;;;42.22;28.42;;;;;;;9.32;62.48;102364.69;4976601;28;20062;-69
2022/12/02 04:13:22;;;;;;;42.15;28.67;;;;;;;9.32;62.79;102364.69;4976607;28;20027;-67
2022/12/02 04:15:47;;;;;;;38.38;26.23;;;;;;;9.32;62.71;102359.28;4976512;28;20038;-67
2022/12/02 04:18:13;;;;;;;40.70;26.88;;;;;;;9.32;62.61;102351.19;4976454;28;20037;-66
2022/12/02 04:20:38;;;;;;;45.10;26.20;;;;;;;9.30;62.53;102353.25;4975766;28;20031;-69
2022/12/02 04:23:04;;;;;;;41.78;27.88;;;;;;;9.31;62.72;102364.84;4976857;28;20061;-70
2022/12/02 04:25:29;;;;;;;35.65;27.40;;;;;;;9.29;62.60;102373.13;4976249;28;20114;-67
2022/12/02 04:27:54;;;;;;;43.00;28.42;;;;;;;9.30;62.60;102371.28;4974916;28;20066;-68
2022/12/02 04:30:20;;;;;;;45.03;26.33;;;;;;;9.28;62.69;102355.28;4976158;28;20038;-68
2022/12/02 04:32:45;;;;;;;40.20;25.95;;;;;;;9.28;62.58;102368.78;4975907;28;20027;-67
2022/12/02 04:35:11;;;;;;;41.55;27.05;;;;;;;9.27;62.67;102363.56;4976310;28;20113;-67
2022/12/02 04:37:36;;;;;;;42.45;25.10;;;;;;;9.27;62.57;102358.19;4991024;28;20058;-69
2022/12/02 04:40:01;;;;;;;37.17;25.45;;;;;;;9.27;62.58;102350.94;4991095;28;20109;-67
2022/12/02 04:42:26;;;;;;;43.03;27.38;;;;;;;9.26;62.45;102349.25;4990913;28;20058;-67
2022/12/02 04:44:52;;;;;;;45.05;25.58;;;;;;;9.26;62.51;102354.66;4975922;28;20085;-67
2022/12/02 04:47:17;;;;;;;34.50;25.65;;;;;;;9.26;62.59;102340.34;4975885;28;20023;-67
2022/12/02 04:49:43;;;;;;;36.72;24.88;;;;;;;9.26;62.53;102345.72;4974986;28;20035;-67
2022/12/02 04:52:08;;;;;;;31.40;25.88;;;;;;;9.24;62.80;102343.22;4974466;28;20106;-68
2022/12/02 04:54:33;;;;;;;38.42;27.08;;;;;;;9.26;62.45;102345.72;4976138;28;20478;-67
2022/12/02 04:56:59;;;;;;;42.03;25.00;;;;;;;9.25;62.50;102350.28;4975527;28;20035;-67
2022/12/02 04:59:24;;;;;;;42.97;27.83;;;;;;;9.24;62.79;102345.91;4990796;28;20398;-68
2022/12/02 05:01:49;;;;;;;41.33;25.60;;;;;;;9.23;62.51;102341.56;4975955;28;20374;-67
2022/12/02 05:04:15;;;;;;;51.08;26.48;;;;;;;9.24;62.73;102339.69;4975666;28;20065;-67
2022/12/02 05:06:40;;;;;;;45.47;27.55;;;;;;;9.23;62.58;102333.47;4975489;28;20034;-67
2022/12/02 05:09:06;;;;;;;40.78;26.45;;;;;;;9.22;62.45;102337.22;4990425;28;20035;-68
2022/12/02 05:11:31;;;;;;;38.88;24.80;;;;;;;9.22;62.45;102339.91;4975439;28;20030;-68
2022/12/02 05:13:56;;;;;;;34.65;24.73;;;;;;;9.21;62.45;102343.63;4975394;28;20376;-67
2022/12/02 05:16:22;;;;;;;36.25;24.77;;;;;;;9.21;62.51;102332.00;4974096;28;20034;-67
2022/12/02 05:18:47;;;;;;;36.10;24.13;;;;;;;9.21;62.41;102332.00;4990421;28;20042;-67
2022/12/02 05:21:12;;;;;;;34.17;25.30;;;;;;;9.20;62.61;102331.16;4990287;28;20126;-67
2022/12/02 05:23:38;;;;;;;37.88;27.17;;;;;;;9.20;62.41;102330.34;4975159;28;20035;-68
2022/12/02 05:26:03;;;;;;;37.25;25.63;;;;;;;9.20;62.46;102327.66;4975424;28;20034;-67
2022/12/02 05:28:28;;;;;;;40.67;24.98;;;;;;;9.19;62.46;102337.56;4975082;28;20038;-67
2022/12/02 05:30:54;;;;;;;37.28;24.10;;;;;;;9.18;62.28;102327.00;4975009;28;20368;-67
2022/12/02 05:33:19;;;;;;;34.80;25.40;;;;;;;9.18;62.39;102324.31;4975069;28;20110;-67
2022/12/02 05:35:44;;;;;;;40.58;24.42;;;;;;;9.17;62.28;102331.56;4974992;28;20404;-67
2022/12/02 05:38:10;;;;;;;35.88;24.27;;;;;;;9.15;62.58;102330.91;4989996;28;20066;-67
2022/12/02 05:40:35;;;;;;;45.33;26.40;;;;;;;9.15;62.30;102330.91;4974649;28;20035;-70
2022/12/02 05:43:19;;;;;;;36.15;25.75;;;;;;;9.15;62.49;102320.13;4974730;28;20026;-67
2022/12/02 05:45:44;;;;;;;38.38;26.45;;;;;;;9.14;62.38;102323.00;4974935;28;20126;-66
2022/12/02 05:48:11;;;;;;;39.17;23.95;;;;;;;9.13;62.43;102334.84;4974903;28;20526;-66
2022/12/02 05:50:38;;;;;;;30.58;24.02;;;;;;;9.12;62.26;102331.28;4974848;28;20031;-67
2022/12/02 05:53:03;;;;;;;29.23;24.30;;;;;;;9.10;62.39;102339.59;4974512;28;20165;-67
2022/12/02 05:55:29;;;;;;;31.17;23.48;;;;;;;9.10;62.17;102330.66;4974618;28;20567;-67
2022/12/02 05:58:00;;;;;;;39.53;23.98;;;;;;;9.08;62.38;102314.69;4974938;28;20468;-67
2022/12/02 06:00:26;;;;;;;38.10;24.23;;;;;;;9.09;62.16;102313.63;4974788;28;20042;-70
2022/12/02 06:02:53;;;;;;;37.55;24.48;;;;;;;9.09;62.33;102318.19;4974645;28;20043;-67
2022/12/02 06:05:26;;;;;;;32.30;24.00;;;;;;;9.08;62.47;102320.06;4974632;28;20035;-66
2022/12/02 06:07:57;;;;;;;36.10;23.83;;;;;;;9.08;62.36;102321.94;4974861;28;20035;-67
2022/12/02 06:10:31;;;;;;;26.80;23.73;;;;;;;9.07;62.46;102317.56;4974417;28;20464;-68
2022/12/02 06:13:00;;;;;;;29.73;23.30;;;;;;;9.06;62.30;102324.00;4974907;28;20035;-66
2022/12/02 06:15:31;;;;;;;;;;;;;;;9.06;62.35;102324.00;4974940;28;20069;-67
2022/12/02 06:17:56;;;;;;;38.38;20.88;;;;;;;9.04;62.25;102323.34;4974679;28;19921;-67
2022/12/02 06:20:29;;;;;;;24.80;22.17;;;;;;;9.02;62.48;102325.38;4974504;28;20027;-67
2022/12/02 06:22:55;;;;;;;30.23;22.38;;;;;;;9.01;62.47;102327.25;4989897;28;20034;-68
2022/12/02 06:25:27;;;;;;;33.72;22.88;;;;;;;9.01;62.28;102329.94;4974534;28;20352;-68
2022/12/02 06:27:55;;;;;;;31.52;22.40;;;;;;;9.02;62.40;102320.00;4975186;28;20133;-67
2022/12/02 06:30:21;;;;;;;33.13;23.30;;;;;;;9.01;62.14;102316.47;4974993;28;20155;-66
2022/12/02 06:32:57;;;;;;;28.52;24.23;;;;;;;9.00;62.33;102316.69;4974610;28;20113;-69
2022/12/02 06:35:23;;;;;;;37.75;23.85;;;;;;;9.00;62.13;102322.09;4974719;28;20027;-68
2022/12/02 06:37:50;;;;;;;26.73;21.85;;;;;;;9.00;62.05;102319.38;4974030;28;20043;-68
2022/12/02 06:40:33;;;;;;;27.75;21.60;;;;;;;8.99;62.29;102320.41;4974384;28;20031;-68
2022/12/02 06:43:01;;;;;;;22.83;20.08;;;;;;;8.97;62.12;102323.31;4975623;28;20038;-72
2022/12/02 06:45:32;;;;;;;26.50;20.17;;;;;;;8.97;62.28;102317.06;4977381;28;20383;-66
2022/12/02 06:48:06;;;;;;;27.40;21.67;;;;;;;8.96;62.22;102313.53;4978868;28;20115;-71
2022/12/02 06:50:37;;;;;;;29.58;22.88;;;;;;;8.96;62.10;102318.91;4978349;28;20027;-73
2022/12/02 06:53:33;;;;;;;25.80;21.42;;;;;;;8.95;62.17;102319.97;4978120;28;20097;-68
2022/12/02 06:56:05;;;;;;;26.80;21.75;;;;;;;8.93;62.00;102308.53;4978527;28;20073;-67
2022/12/02 06:58:38;;;;;;;27.85;21.40;;;;;;;8.93;62.00;102307.72;4978027;28;20034;-70
2022/12/02 07:01:14;;;;;;;23.73;21.45;;;;;;;8.93;62.25;102308.53;4977835;28;20034;-70
2022/12/02 07:04:01;;;;;;;26.30;22.63;;;;;;;8.91;61.96;102310.59;4977761;28;20049;-70
2022/12/02 07:06:28;;;;;;;29.08;22.42;;;;;;;8.91;62.18;102310.59;4978530;28;20063;-68
2022/12/02 07:09:01;;;;;;;26.08;22.30;;;;;;;8.90;62.30;102308.94;4977510;28;20110;-72
2022/12/02 07:11:52;;;;;;;25.90;20.85;;;;;;;8.89;62.27;102315.31;4977441;28;20505;-72
2022/12/02 07:14:33;;;;;;;25.85;21.42;;;;;;;8.88;62.10;102317.19;4978028;28;20418;-68
2022/12/02 07:17:07;;;;;;;33.50;22.05;;;;;;;8.87;62.28;102320.09;4978289;28;20038;-69
2022/12/02 07:19:39;;;;;;;32.55;20.88;;;;;;;8.87;62.01;102314.72;4977640;28;20031;-69
2022/12/02 07:22:15;;;;;;;27.45;19.90;;;;;;;8.86;62.26;102319.25;4977509;28;20467;-68
2022/12/02 07:24:41;;;;;;;32.35;21.65;;;;;;;8.86;62.24;102329.19;4977846;28;20083;-68
2022/12/02 07:27:21;;;;;;;26.00;21.33;;;;;;;8.84;62.09;102333.94;4976442;28;20038;-69
2022/12/02 07:29:48;;;;;;;25.33;21.52;;;;;;;8.84;62.08;102325.84;4977388;28;20027;-70
2022/12/02 07:32:13;;;;;;;32.85;19.92;;;;;;;8.86;62.15;102329.19;4977302;28;20039;-68
2022/12/02 07:34:38;;;;;;;35.47;22.00;;;;;;;8.85;61.96;102327.53;4975897;28;20534;-70
2022/12/02 07:37:04;;;;;;;23.83;20.77;;;;;;;8.83;62.03;102324.19;4977448;28;20471;-68
2022/12/02 07:39:30;;;;;;;28.08;21.90;;;;;;;8.84;62.26;102320.47;4977407;28;20042;-68
2022/12/02 07:41:55;;;;;;;27.35;24.05;;;;;;;8.83;62.10;102329.59;4977038;28;20035;-68
2022/12/02 07:44:20;;;;;;;24.80;21.92;;;;;;;8.82;62.04;102325.19;4992108;28;20130;-68
2022/12/02 07:46:46;;;;;;;31.95;20.77;;;;;;;8.82;62.15;102328.75;4976890;28;20031;-66
2022/12/02 07:49:11;;;;;;;25.80;20.50;;;;;;;8.82;61.85;102326.06;4976932;28;20031;-68
2022/12/02 07:51:36;;;;;;;23.67;21.15;;;;;;;8.81;62.08;102323.53;4976628;28;20031;-67
2022/12/02 07:54:02;;;;;;;21.33;18.67;;;;;;;8.81;62.13;102324.38;4976259;28;20078;-72
2022/12/02 07:56:27;;;;;;;29.98;20.88;;;;;;;8.81;62.00;102328.94;4976586;28;20047;-68
2022/12/02 07:58:53;;;;;;;23.83;20.73;;;;;;;8.79;62.04;102329.09;4976795;28;20520;-67
2022/12/02 08:01:19;;;;;;;21.75;19.35;;;;;;;8.80;62.00;102321.88;4976686;28;20041;-68
2022/12/02 08:03:44;;;;;;;31.67;22.52;;;;;;;8.79;62.02;102333.69;4976832;28;20117;-66
2022/12/02 08:06:09;;;;;;;25.80;20.63;;;;;;;8.78;62.06;102335.53;4975626;28;20113;-67
2022/12/02 08:08:35;;;;;;;22.45;20.02;;;;;;;8.78;62.07;102334.72;4976480;28;20076;-67
2022/12/02 08:11:00;;;;;;;22.23;19.88;;;;;;;8.77;62.04;102335.72;4991758;28;20071;-72
2022/12/02 08:13:25;;;;;;;26.42;20.25;;;;;;;8.76;61.91;102337.59;4991470;28;20042;-67
2022/12/02 08:15:51;;;;;;;27.38;21.27;;;;;;;8.76;62.11;102329.50;4975191;28;20360;-67
2022/12/02 08:18:16;;;;;;;27.02;20.52;;;;;;;8.75;62.15;102333.22;4976093;28;20090;-70
2022/12/02 08:20:41;;;;;;;27.42;20.98;;;;;;;8.76;62.07;102334.06;4975984;28;20054;-70
2022/12/02 08:23:07;;;;;;;26.10;19.65;;;;;;;8.74;62.11;102334.25;4991522;28;20474;-68
2022/12/02 08:25:32;;;;;;;26.30;20.67;;;;;;;8.74;61.92;102328.03;4991255;28;20038;-66
2022/12/02 08:27:57;;;;;;;32.00;21.40;;;;;;;8.73;62.07;102332.59;4976450;28;20035;-71
2022/12/02 08:30:23;;;;;;;24.27;19.95;;;;;;;8.72;61.90;102332.75;4976193;28;20370;-68
2022/12/02 08:32:48;;;;;;;26.38;20.75;;;;;;;8.72;61.97;102332.75;4976102;28;20360;-67
2022/12/02 08:35:13;;;;;;;27.98;21.38;;;;;;;8.72;62.19;102332.75;4974766;28;20035;-68
2022/12/02 08:37:39;;;;;;;26.58;20.20;;;;;;;8.70;61.99;102330.28;4975983;28;20118;-68
2022/12/02 08:40:05;;;;;;;21.05;18.90;;;;;;;8.70;61.95;102326.75;4975079;28;20113;-67
2022/12/02 08:42:30;;;;;;;22.10;19.90;;;;;;;8.70;62.17;102326.75;4975612;28;20490;-66
2022/12/02 08:44:56;;;;;;;34.33;23.88;;;;;;;8.70;61.95;102330.28;4974662;28;20118;-68
2022/12/02 08:47:22;;;;;;;23.58;21.00;;;;;;;8.69;61.99;102328.59;4975561;28;20360;-68
2022/12/02 08:49:47;;;;;;;24.13;21.55;;;;;;;8.69;62.08;102328.59;4975977;28;20372;-68
2022/12/02 08:52:12;;;;;;;22.42;19.73;;;;;;;8.69;62.10;102330.47;4975566;28;20039;-66
2022/12/02 08:54:39;;;;;;;24.35;19.77;;;;;;;8.67;61.82;102333.38;4974764;28;20459;-67
2022/12/02 08:57:05;;;;;;;20.77;18.08;;;;;;;8.66;62.07;102323.59;4976018;28;20031;-69
2022/12/02 08:59:30;;;;;;;24.23;21.08;;;;;;;8.65;62.01;102328.16;4975645;28;20046;-68
2022/12/02 09:01:56;;;;;;;21.80;19.50;;;;;;;8.65;62.12;102325.47;4990427;28;20035;-68
2022/12/02 09:04:21;;;;;;;25.85;21.17;;;;;;;8.64;62.03;102323.81;4975525;28;20031;-66
2022/12/02 09:06:47;;;;;;;27.05;20.42;;;;;;;8.65;61.85;102327.31;4974980;28;20034;-67
2022/12/02 09:09:12;;;;;;;20.63;18.70;;;;;;;8.65;61.93;102325.47;4975469;28;20037;-67
2022/12/02 09:11:37;;;;;;;23.27;20.83;;;;;;;8.64;62.02;102329.19;4975423;28;20539;-67
2022/12/02 09:14:03;;;;;;;24.45;21.58;;;;;;;8.63;61.89;102322.13;4975749;28;20058;-72
2022/12/02 09:16:29;;;;;;;26.58;21.25;;;;;;;8.64;61.93;102322.94;4975410;28;20038;-71
2022/12/02 09:18:55;;;;;;;23.15;19.88;;;;;;;8.62;62.04;102322.31;4973987;28;20415;-69
2022/12/02 09:21:21;;;;;;;22.08;19.67;;;;;;;8.62;61.73;102328.53;4975243;28;20469;-66
2022/12/02 09:23:46;;;;;;;20.38;18.20;;;;;;;8.62;61.97;102330.41;4975192;28;20058;-69
2022/12/02 09:26:12;;;;;;;22.33;19.33;;;;;;;8.62;61.92;102325.03;4974926;28;20069;-66
2022/12/02 09:28:37;;;;;;;23.30;20.63;;;;;;;8.60;61.97;102325.19;4974989;28;20498;-69
2022/12/02 09:31:02;;;;;;;25.33;22.67;;;;;;;8.60;62.02;102332.44;4975322;28;20082;-67
2022/12/02 09:33:28;;;;;;;25.45;20.20;;;;;;;8.59;62.00;102326.25;4974775;28;20034;-66
2022/12/02 09:35:53;;;;;;;25.00;20.83;;;;;;;8.59;61.98;102325.38;4974894;28;20038;-68
2022/12/02 09:38:18;;;;;;;24.08;19.63;;;;;;;8.58;61.92;102321.84;4974891;28;20058;-69
2022/12/02 09:40:44;;;;;;;28.35;21.08;;;;;;;8.58;61.99;102321.84;4974623;28;20038;-69
2022/12/02 09:43:09;;;;;;;24.30;20.02;;;;;;;8.57;61.96;102314.81;4974438;28;20475;-71
2022/12/02 09:45:35;;;;;;;22.13;19.88;;;;;;;8.58;61.75;102312.94;4974839;28;20039;-67
2022/12/02 09:48:01;;;;;;;24.83;20.67;;;;;;;8.57;61.94;102316.69;4989399;28;20027;-68
2022/12/02 09:50:26;;;;;;;23.23;20.73;;;;;;;8.55;61.61;102314.16;4974548;28;20534;-68
2022/12/02 09:52:56;;;;;;;22.67;20.23;;;;;;;8.56;61.89;102321.22;4974852;28;20057;-70
2022/12/02 09:55:22;;;;;;;21.30;19.13;;;;;;;8.55;62.03;102314.16;4974393;28;20034;-69
2022/12/02 09:57:47;;;;;;;23.50;19.60;;;;;;;8.55;61.80;102316.84;4973322;28;20043;-67
2022/12/02 10:00:17;;;;;;;23.13;20.70;;;;;;;8.54;61.77;102309.81;4990092;28;20037;-70
2022/12/02 10:02:53;;;;;;;22.25;19.98;;;;;;;8.54;61.90;102307.13;4989340;28;20049;-69
2022/12/02 10:05:24;;;;;;;28.17;21.45;;;;;;;8.54;61.87;102309.81;4974510;28;20035;-68
2022/12/02 10:07:52;;;;;;;26.23;19.85;;;;;;;8.53;61.91;102310.00;4974891;28;20031;-73
2022/12/02 10:10:20;;;;;;;26.73;20.67;;;;;;;8.53;61.90;102308.13;4974339;28;20110;-67
2022/12/02 10:12:47;;;;;;;24.35;19.48;;;;;;;8.52;62.09;102306.47;4974494;28;20038;-71
2022/12/02 10:15:15;;;;;;;23.92;21.27;;;;;;;8.52;61.96;102305.66;4974218;28;20114;-69
2022/12/02 10:17:44;;;;;;;25.50;19.95;;;;;;;8.52;61.73;102302.94;4975124;28;20038;-68
2022/12/02 10:20:18;;;;;;;25.63;20.45;;;;;;;8.51;61.89;102310.16;4978560;28;20531;-72
2022/12/02 10:23:15;;;;;;;23.33;18.05;;;;;;;8.49;61.89;102304.13;4978747;28;20035;-73
2022/12/02 10:26:02;;;;;;;21.67;18.83;;;;;;;8.50;61.71;102303.13;4974644;28;20125;-70
2022/12/02 10:28:30;;;;;;;20.25;18.45;;;;;;;8.50;61.99;102302.31;4978270;28;20599;-70
2022/12/02 10:31:13;;;;;;;22.55;20.10;;;;;;;8.50;61.91;102299.59;4977274;28;20090;-70
2022/12/02 10:33:44;;;;;;;24.77;20.23;;;;;;;8.49;61.77;102296.06;4978619;28;20039;-74
2022/12/02 10:36:09;;;;;;;26.30;20.80;;;;;;;8.49;61.71;102290.66;4978538;28;20030;-69
2022/12/02 10:38:42;;;;;;;22.00;19.75;;;;;;;8.49;61.78;102293.38;4978544;28;20039;-71
2022/12/02 10:41:14;;;;;;;23.33;20.50;;;;;;;8.48;61.80;102280.94;4978416;28;20023;-69
2022/12/02 10:43:41;;;;;;;21.38;19.20;;;;;;;8.47;61.75;102276.59;4978422;28;20038;-71
2022/12/02 10:46:06;;;;;;;23.35;20.95;;;;;;;8.48;61.45;102278.25;4978072;28;20520;-75
2022/12/02 10:48:34;;;;;;;23.83;19.77;;;;;;;8.48;62.00;102278.25;4977293;28;20035;-71
2022/12/02 10:51:00;;;;;;;24.08;20.20;;;;;;;8.47;61.78;102273.91;4977332;28;20104;-73
2022/12/02 10:53:28;;;;;;;23.60;18.63;;;;;;;8.47;61.85;102281.97;4976548;28;20419;-71
2022/12/02 10:55:54;;;;;;;23.98;19.17;;;;;;;8.46;61.79;102277.59;4977862;28;20530;-72
2022/12/02 10:58:27;;;;;;;22.35;18.92;;;;;;;8.46;61.88;102282.97;4976616;28;20127;-74
2022/12/02 11:00:53;;;;;;;27.45;19.90;;;;;;;8.45;61.59;102268.69;4977879;28;20062;-69
2022/12/02 11:03:19;;;;;;;24.55;19.17;;;;;;;8.45;61.68;102267.84;4977698;28;20061;-71
2022/12/02 11:05:45;;;;;;;22.05;19.75;;;;;;;8.45;61.68;102281.31;4977761;28;20034;-70
2022/12/02 11:08:22;;;;;;;28.60;19.88;;;;;;;8.44;61.92;102272.41;4977863;28;20045;-71
2022/12/02 11:11:04;;;;;;;20.48;18.55;;;;;;;8.44;61.74;102271.56;4977694;28;20062;-72
2022/12/02 11:13:59;;;;;;;22.27;19.87;;;;;;;8.44;61.68;102260.78;4977840;28;20023;-71
2022/12/02 11:16:27;;;;;;;22.90;19.45;;;;;;;8.42;61.70;102262.88;4992410;28;20031;-69
2022/12/02 11:19:12;;;;;;;24.35;17.95;;;;;;;8.41;61.81;102266.56;4977517;28;20454;-69
2022/12/02 11:21:42;;;;;;;20.85;18.58;;;;;;;8.41;61.88;102263.88;4977505;28;20031;-68